sensor_id;sensor_type;location;lat;lon;timestamp;P1;durP1;ratioP1;P2;durP2;ratioP2
75289;SDS011;63883;48.996;20.804;2022-11-20T00:00:50;38.55;;;15.27;;
75289;SDS011;63883;48.996;20.804;2022-11-20T00:03:18;36.83;;;14.63;;
75289;SDS011;63883;48.996;20.804;2022-11-20T00:05:43;44.45;;;16.30;;
75289;SDS011;63883;48.996;20.804;2022-11-20T00:08:09;31.33;;;13.10;;
75289;SDS011;63883;48.996;20.804;2022-11-20T00:10:36;36.10;;;13.23;;
75289;SDS011;63883;48.996;20.804;2022-11-20T00:13:03;30.42;;;12.48;;
75289;SDS011;63883;48.996;20.804;2022-11-20T00:15:28;25.83;;;10.43;;
75289;SDS011;63883;48.996;20.804;2022-11-20T00:17:54;27.38;;;10.50;;
75289;SDS011;63883;48.996;20.804;2022-11-20T00:20:20;67.57;;;20.83;;
75289;SDS011;63883;48.996;20.804;2022-11-20T00:22:46;79.50;;;24.52;;
75289;SDS011;63883;48.996;20.804;2022-11-20T00:25:11;69.85;;;22.40;;
75289;SDS011;63883;48.996;20.804;2022-11-20T00:27:37;64.15;;;20.70;;
75289;SDS011;63883;48.996;20.804;2022-11-20T00:30:03;69.40;;;22.35;;
75289;SDS011;63883;48.996;20.804;2022-11-20T00:32:30;47.38;;;16.48;;
75289;SDS011;63883;48.996;20.804;2022-11-20T00:34:55;50.08;;;17.00;;
75289;SDS011;63883;48.996;20.804;2022-11-20T00:37:21;30.23;;;11.32;;
75289;SDS011;63883;48.996;20.804;2022-11-20T00:39:46;22.77;;;9.48;;
75289;SDS011;63883;48.996;20.804;2022-11-20T00:42:12;17.42;;;7.25;;
75289;SDS011;63883;48.996;20.804;2022-11-20T00:44:38;16.58;;;7.38;;
75289;SDS011;63883;48.996;20.804;2022-11-20T00:47:04;16.92;;;7.53;;
75289;SDS011;63883;48.996;20.804;2022-11-20T00:49:29;19.33;;;7.20;;
75289;SDS011;63883;48.996;20.804;2022-11-20T00:51:55;19.35;;;7.60;;
75289;SDS011;63883;48.996;20.804;2022-11-20T00:54:20;16.95;;;7.35;;
75289;SDS011;63883;48.996;20.804;2022-11-20T00:56:46;21.58;;;9.35;;
75289;SDS011;63883;48.996;20.804;2022-11-20T00:59:12;22.10;;;9.77;;
75289;SDS011;63883;48.996;20.804;2022-11-20T01:01:38;29.80;;;11.00;;
75289;SDS011;63883;48.996;20.804;2022-11-20T01:04:03;32.88;;;13.23;;
75289;SDS011;63883;48.996;20.804;2022-11-20T01:06:30;25.98;;;10.15;;
75289;SDS011;63883;48.996;20.804;2022-11-20T01:09:02;26.52;;;11.02;;
75289;SDS011;63883;48.996;20.804;2022-11-20T01:11:36;25.10;;;10.07;;
75289;SDS011;63883;48.996;20.804;2022-11-20T01:14:04;26.13;;;10.85;;
75289;SDS011;63883;48.996;20.804;2022-11-20T01:16:33;27.73;;;10.60;;
75289;SDS011;63883;48.996;20.804;2022-11-20T01:19:02;28.50;;;10.98;;
75289;SDS011;63883;48.996;20.804;2022-11-20T01:23:56;30.30;;;11.98;;
75289;SDS011;63883;48.996;20.804;2022-11-20T01:26:24;38.97;;;14.48;;
75289;SDS011;63883;48.996;20.804;2022-11-20T01:28:51;45.13;;;14.35;;
75289;SDS011;63883;48.996;20.804;2022-11-20T01:31:23;40.03;;;14.95;;
75289;SDS011;63883;48.996;20.804;2022-11-20T01:33:54;30.55;;;12.32;;
75289;SDS011;63883;48.996;20.804;2022-11-20T01:36:23;32.13;;;11.23;;
75289;SDS011;63883;48.996;20.804;2022-11-20T01:38:51;27.15;;;11.40;;
75289;SDS011;63883;48.996;20.804;2022-11-20T01:41:21;24.77;;;10.90;;
75289;SDS011;63883;48.996;20.804;2022-11-20T01:44:06;25.73;;;11.00;;
75289;SDS011;63883;48.996;20.804;2022-11-20T01:46:37;27.73;;;11.95;;
75289;SDS011;63883;48.996;20.804;2022-11-20T01:49:10;29.20;;;12.75;;
75289;SDS011;63883;48.996;20.804;2022-11-20T01:51:54;27.80;;;12.75;;
75289;SDS011;63883;48.996;20.804;2022-11-20T01:54:36;26.85;;;11.40;;
75289;SDS011;63883;48.996;20.804;2022-11-20T01:57:07;28.75;;;11.30;;
75289;SDS011;63883;48.996;20.804;2022-11-20T01:59:37;25.90;;;10.65;;
75289;SDS011;63883;48.996;20.804;2022-11-20T02:02:10;25.88;;;11.35;;
75289;SDS011;63883;48.996;20.804;2022-11-20T02:04:36;26.65;;;10.30;;
75289;SDS011;63883;48.996;20.804;2022-11-20T02:07:02;22.48;;;9.90;;
75289;SDS011;63883;48.996;20.804;2022-11-20T02:09:30;23.65;;;9.55;;
75289;SDS011;63883;48.996;20.804;2022-11-20T02:11:56;24.50;;;9.88;;
75289;SDS011;63883;48.996;20.804;2022-11-20T02:14:23;25.08;;;10.95;;
75289;SDS011;63883;48.996;20.804;2022-11-20T02:16:50;27.55;;;11.23;;
75289;SDS011;63883;48.996;20.804;2022-11-20T02:22:04;34.60;;;12.55;;
75289;SDS011;63883;48.996;20.804;2022-11-20T02:24:38;44.58;;;15.85;;
75289;SDS011;63883;48.996;20.804;2022-11-20T02:29:47;38.80;;;14.90;;
75289;SDS011;63883;48.996;20.804;2022-11-20T02:32:18;29.70;;;12.18;;
75289;SDS011;63883;48.996;20.804;2022-11-20T02:34:48;27.15;;;11.65;;
75289;SDS011;63883;48.996;20.804;2022-11-20T02:37:14;24.27;;;9.60;;
75289;SDS011;63883;48.996;20.804;2022-11-20T02:39:41;23.50;;;9.88;;
75289;SDS011;63883;48.996;20.804;2022-11-20T02:42:08;21.20;;;9.05;;
75289;SDS011;63883;48.996;20.804;2022-11-20T02:44:34;23.88;;;10.25;;
75289;SDS011;63883;48.996;20.804;2022-11-20T02:47:00;24.80;;;10.50;;
75289;SDS011;63883;48.996;20.804;2022-11-20T02:49:25;25.60;;;9.80;;
75289;SDS011;63883;48.996;20.804;2022-11-20T02:51:51;24.75;;;9.93;;
75289;SDS011;63883;48.996;20.804;2022-11-20T02:54:17;22.08;;;9.52;;
75289;SDS011;63883;48.996;20.804;2022-11-20T02:56:43;24.83;;;9.80;;
75289;SDS011;63883;48.996;20.804;2022-11-20T02:59:26;26.42;;;10.68;;
75289;SDS011;63883;48.996;20.804;2022-11-20T03:01:52;23.38;;;9.48;;
75289;SDS011;63883;48.996;20.804;2022-11-20T03:04:18;23.77;;;10.00;;
75289;SDS011;63883;48.996;20.804;2022-11-20T03:06:44;23.70;;;10.45;;
75289;SDS011;63883;48.996;20.804;2022-11-20T03:09:09;23.50;;;9.73;;
75289;SDS011;63883;48.996;20.804;2022-11-20T03:11:35;25.08;;;10.38;;
75289;SDS011;63883;48.996;20.804;2022-11-20T03:14:04;23.35;;;10.23;;
75289;SDS011;63883;48.996;20.804;2022-11-20T03:16:30;21.08;;;8.88;;
75289;SDS011;63883;48.996;20.804;2022-11-20T03:18:56;18.40;;;7.35;;
75289;SDS011;63883;48.996;20.804;2022-11-20T03:21:22;19.95;;;8.38;;
75289;SDS011;63883;48.996;20.804;2022-11-20T03:23:48;18.60;;;7.80;;
75289;SDS011;63883;48.996;20.804;2022-11-20T03:26:15;20.60;;;7.50;;
75289;SDS011;63883;48.996;20.804;2022-11-20T03:28:48;18.55;;;6.95;;
75289;SDS011;63883;48.996;20.804;2022-11-20T03:31:16;20.20;;;8.25;;
75289;SDS011;63883;48.996;20.804;2022-11-20T03:33:43;18.70;;;8.25;;
75289;SDS011;63883;48.996;20.804;2022-11-20T03:36:10;15.77;;;7.57;;
75289;SDS011;63883;48.996;20.804;2022-11-20T03:38:38;16.38;;;7.03;;
75289;SDS011;63883;48.996;20.804;2022-11-20T03:41:05;17.85;;;6.82;;
75289;SDS011;63883;48.996;20.804;2022-11-20T03:43:33;18.45;;;7.75;;
75289;SDS011;63883;48.996;20.804;2022-11-20T03:45:59;17.52;;;7.40;;
75289;SDS011;63883;48.996;20.804;2022-11-20T03:48:25;18.13;;;6.93;;
75289;SDS011;63883;48.996;20.804;2022-11-20T03:50:52;18.33;;;7.47;;
75289;SDS011;63883;48.996;20.804;2022-11-20T03:53:19;16.50;;;7.30;;
75289;SDS011;63883;48.996;20.804;2022-11-20T03:55:49;16.10;;;7.03;;
75289;SDS011;63883;48.996;20.804;2022-11-20T03:58:16;17.25;;;7.45;;
75289;SDS011;63883;48.996;20.804;2022-11-20T04:00:43;15.38;;;7.53;;
75289;SDS011;63883;48.996;20.804;2022-11-20T04:03:08;18.42;;;7.43;;
75289;SDS011;63883;48.996;20.804;2022-11-20T04:05:34;23.02;;;8.20;;
75289;SDS011;63883;48.996;20.804;2022-11-20T04:08:00;19.23;;;7.60;;
75289;SDS011;63883;48.996;20.804;2022-11-20T04:10:26;18.83;;;8.05;;
75289;SDS011;63883;48.996;20.804;2022-11-20T04:12:51;16.42;;;6.85;;
75289;SDS011;63883;48.996;20.804;2022-11-20T04:15:17;24.17;;;7.82;;
75289;SDS011;63883;48.996;20.804;2022-11-20T04:17:43;20.88;;;8.48;;
75289;SDS011;63883;48.996;20.804;2022-11-20T04:20:09;19.40;;;8.20;;
75289;SDS011;63883;48.996;20.804;2022-11-20T04:22:35;23.00;;;8.93;;
75289;SDS011;63883;48.996;20.804;2022-11-20T04:25:00;21.58;;;8.70;;
75289;SDS011;63883;48.996;20.804;2022-11-20T04:27:26;20.67;;;8.85;;
75289;SDS011;63883;48.996;20.804;2022-11-20T04:29:52;20.17;;;8.20;;
75289;SDS011;63883;48.996;20.804;2022-11-20T04:32:17;20.33;;;8.55;;
75289;SDS011;63883;48.996;20.804;2022-11-20T04:34:43;21.33;;;8.73;;
75289;SDS011;63883;48.996;20.804;2022-11-20T04:37:09;25.02;;;9.80;;
75289;SDS011;63883;48.996;20.804;2022-11-20T04:39:34;23.60;;;9.90;;
75289;SDS011;63883;48.996;20.804;2022-11-20T04:42:00;23.33;;;9.57;;
75289;SDS011;63883;48.996;20.804;2022-11-20T04:44:44;21.48;;;9.35;;
75289;SDS011;63883;48.996;20.804;2022-11-20T04:47:10;22.42;;;9.48;;
75289;SDS011;63883;48.996;20.804;2022-11-20T04:49:36;21.42;;;8.82;;
75289;SDS011;63883;48.996;20.804;2022-11-20T04:52:01;20.75;;;9.20;;
75289;SDS011;63883;48.996;20.804;2022-11-20T04:54:27;21.08;;;9.88;;
75289;SDS011;63883;48.996;20.804;2022-11-20T04:56:52;25.25;;;9.65;;
75289;SDS011;63883;48.996;20.804;2022-11-20T04:59:18;25.10;;;10.10;;
75289;SDS011;63883;48.996;20.804;2022-11-20T05:01:44;21.33;;;9.15;;
75289;SDS011;63883;48.996;20.804;2022-11-20T05:04:10;21.75;;;9.50;;
75289;SDS011;63883;48.996;20.804;2022-11-20T05:06:36;19.73;;;8.38;;
75289;SDS011;63883;48.996;20.804;2022-11-20T05:09:01;23.15;;;8.80;;
75289;SDS011;63883;48.996;20.804;2022-11-20T05:11:27;21.20;;;8.90;;
75289;SDS011;63883;48.996;20.804;2022-11-20T05:13:54;21.02;;;8.55;;
75289;SDS011;63883;48.996;20.804;2022-11-20T05:16:21;24.77;;;10.18;;
75289;SDS011;63883;48.996;20.804;2022-11-20T05:18:49;21.63;;;9.85;;
75289;SDS011;63883;48.996;20.804;2022-11-20T05:21:15;19.05;;;8.65;;
75289;SDS011;63883;48.996;20.804;2022-11-20T05:23:41;19.13;;;8.05;;
75289;SDS011;63883;48.996;20.804;2022-11-20T05:26:13;19.42;;;7.72;;
75289;SDS011;63883;48.996;20.804;2022-11-20T05:28:41;17.23;;;7.60;;
75289;SDS011;63883;48.996;20.804;2022-11-20T05:31:11;17.08;;;7.72;;
75289;SDS011;63883;48.996;20.804;2022-11-20T05:33:42;17.98;;;7.78;;
75289;SDS011;63883;48.996;20.804;2022-11-20T05:36:09;27.33;;;11.20;;
75289;SDS011;63883;48.996;20.804;2022-11-20T05:38:36;24.80;;;10.70;;
75289;SDS011;63883;48.996;20.804;2022-11-20T05:41:05;18.85;;;8.05;;
75289;SDS011;63883;48.996;20.804;2022-11-20T05:43:32;23.17;;;9.02;;
75289;SDS011;63883;48.996;20.804;2022-11-20T05:46:00;30.48;;;12.00;;
75289;SDS011;63883;48.996;20.804;2022-11-20T05:48:26;32.28;;;14.23;;
75289;SDS011;63883;48.996;20.804;2022-11-20T05:50:51;23.88;;;10.80;;
75289;SDS011;63883;48.996;20.804;2022-11-20T05:53:17;23.77;;;10.13;;
75289;SDS011;63883;48.996;20.804;2022-11-20T05:55:43;25.35;;;11.55;;
75289;SDS011;63883;48.996;20.804;2022-11-20T05:58:09;24.25;;;9.75;;
75289;SDS011;63883;48.996;20.804;2022-11-20T06:00:34;26.95;;;11.55;;
75289;SDS011;63883;48.996;20.804;2022-11-20T06:03:01;30.92;;;11.70;;
75289;SDS011;63883;48.996;20.804;2022-11-20T06:05:26;25.08;;;10.85;;
75289;SDS011;63883;48.996;20.804;2022-11-20T06:07:52;20.75;;;9.40;;
75289;SDS011;63883;48.996;20.804;2022-11-20T06:10:18;20.88;;;8.25;;
75289;SDS011;63883;48.996;20.804;2022-11-20T06:12:43;22.58;;;9.77;;
75289;SDS011;63883;48.996;20.804;2022-11-20T06:15:09;27.30;;;11.65;;
75289;SDS011;63883;48.996;20.804;2022-11-20T06:17:35;32.60;;;15.50;;
75289;SDS011;63883;48.996;20.804;2022-11-20T06:20:01;25.77;;;10.68;;
75289;SDS011;63883;48.996;20.804;2022-11-20T06:22:26;24.80;;;9.73;;
75289;SDS011;63883;48.996;20.804;2022-11-20T06:24:52;24.80;;;8.85;;
75289;SDS011;63883;48.996;20.804;2022-11-20T06:27:18;23.17;;;9.43;;
75289;SDS011;63883;48.996;20.804;2022-11-20T06:29:43;26.88;;;9.60;;
75289;SDS011;63883;48.996;20.804;2022-11-20T06:32:09;28.25;;;11.27;;
75289;SDS011;63883;48.996;20.804;2022-11-20T06:34:35;89.28;;;30.77;;
75289;SDS011;63883;48.996;20.804;2022-11-20T06:37:01;31.30;;;12.27;;
75289;SDS011;63883;48.996;20.804;2022-11-20T06:39:26;38.70;;;15.88;;
75289;SDS011;63883;48.996;20.804;2022-11-20T06:41:52;45.40;;;17.85;;
75289;SDS011;63883;48.996;20.804;2022-11-20T06:44:17;39.10;;;18.35;;
75289;SDS011;63883;48.996;20.804;2022-11-20T06:46:43;37.95;;;15.30;;
75289;SDS011;63883;48.996;20.804;2022-11-20T06:49:09;25.75;;;10.23;;
75289;SDS011;63883;48.996;20.804;2022-11-20T06:51:34;23.05;;;9.52;;
75289;SDS011;63883;48.996;20.804;2022-11-20T06:54:00;28.67;;;13.57;;
75289;SDS011;63883;48.996;20.804;2022-11-20T06:56:26;24.88;;;10.00;;
75289;SDS011;63883;48.996;20.804;2022-11-20T06:58:52;20.98;;;10.60;;
75289;SDS011;63883;48.996;20.804;2022-11-20T07:01:18;22.60;;;10.18;;
75289;SDS011;63883;48.996;20.804;2022-11-20T07:03:43;19.88;;;8.82;;
75289;SDS011;63883;48.996;20.804;2022-11-20T07:08:43;41.92;;;16.65;;
75289;SDS011;63883;48.996;20.804;2022-11-20T07:11:11;32.70;;;13.70;;
75289;SDS011;63883;48.996;20.804;2022-11-20T07:13:37;29.73;;;12.57;;
75289;SDS011;63883;48.996;20.804;2022-11-20T07:16:04;41.00;;;16.70;;
75289;SDS011;63883;48.996;20.804;2022-11-20T07:18:31;37.05;;;13.57;;
75289;SDS011;63883;48.996;20.804;2022-11-20T07:21:04;39.67;;;15.27;;
75289;SDS011;63883;48.996;20.804;2022-11-20T07:23:32;26.30;;;10.82;;
75289;SDS011;63883;48.996;20.804;2022-11-20T07:26:02;25.85;;;11.77;;
75289;SDS011;63883;48.996;20.804;2022-11-20T07:28:31;26.30;;;10.50;;
75289;SDS011;63883;48.996;20.804;2022-11-20T07:30:57;25.25;;;10.45;;
75289;SDS011;63883;48.996;20.804;2022-11-20T07:33:23;22.33;;;10.15;;
75289;SDS011;63883;48.996;20.804;2022-11-20T07:35:49;21.75;;;10.00;;
75289;SDS011;63883;48.996;20.804;2022-11-20T07:38:14;23.48;;;10.20;;
75289;SDS011;63883;48.996;20.804;2022-11-20T07:40:40;22.88;;;9.38;;
75289;SDS011;63883;48.996;20.804;2022-11-20T07:43:06;20.42;;;9.98;;
75289;SDS011;63883;48.996;20.804;2022-11-20T07:45:31;29.10;;;13.82;;
75289;SDS011;63883;48.996;20.804;2022-11-20T07:47:57;27.27;;;12.63;;
75289;SDS011;63883;48.996;20.804;2022-11-20T07:50:23;42.70;;;15.82;;
75289;SDS011;63883;48.996;20.804;2022-11-20T07:52:48;48.55;;;17.83;;
75289;SDS011;63883;48.996;20.804;2022-11-20T07:55:14;49.95;;;18.83;;
75289;SDS011;63883;48.996;20.804;2022-11-20T07:57:40;68.55;;;24.50;;
75289;SDS011;63883;48.996;20.804;2022-11-20T08:00:07;71.68;;;21.98;;
75289;SDS011;63883;48.996;20.804;2022-11-20T08:02:38;56.63;;;16.92;;
75289;SDS011;63883;48.996;20.804;2022-11-20T08:05:05;42.78;;;14.82;;
75289;SDS011;63883;48.996;20.804;2022-11-20T08:07:37;36.83;;;14.32;;
75289;SDS011;63883;48.996;20.804;2022-11-20T08:10:08;28.70;;;11.38;;
75289;SDS011;63883;48.996;20.804;2022-11-20T08:12:42;21.75;;;9.73;;
75289;SDS011;63883;48.996;20.804;2022-11-20T08:15:28;22.60;;;9.57;;
75289;SDS011;63883;48.996;20.804;2022-11-20T08:18:07;19.77;;;8.77;;
75289;SDS011;63883;48.996;20.804;2022-11-20T08:20:36;24.23;;;9.85;;
75289;SDS011;63883;48.996;20.804;2022-11-20T08:23:02;24.83;;;10.88;;
75289;SDS011;63883;48.996;20.804;2022-11-20T08:25:36;24.95;;;10.48;;
75289;SDS011;63883;48.996;20.804;2022-11-20T08:28:04;27.90;;;12.35;;
75289;SDS011;63883;48.996;20.804;2022-11-20T08:30:31;27.40;;;12.60;;
75289;SDS011;63883;48.996;20.804;2022-11-20T08:33:04;25.55;;;11.52;;
75289;SDS011;63883;48.996;20.804;2022-11-20T08:35:34;25.83;;;10.60;;
75289;SDS011;63883;48.996;20.804;2022-11-20T08:38:01;28.90;;;12.68;;
75289;SDS011;63883;48.996;20.804;2022-11-20T08:40:30;26.10;;;11.32;;
75289;SDS011;63883;48.996;20.804;2022-11-20T08:42:56;26.13;;;11.57;;
75289;SDS011;63883;48.996;20.804;2022-11-20T08:45:22;40.72;;;17.50;;
75289;SDS011;63883;48.996;20.804;2022-11-20T08:47:48;25.00;;;10.57;;
75289;SDS011;63883;48.996;20.804;2022-11-20T08:50:15;29.27;;;12.75;;
75289;SDS011;63883;48.996;20.804;2022-11-20T08:52:41;48.55;;;18.33;;
75289;SDS011;63883;48.996;20.804;2022-11-20T08:55:07;24.50;;;9.52;;
75289;SDS011;63883;48.996;20.804;2022-11-20T08:57:34;29.05;;;11.57;;
75289;SDS011;63883;48.996;20.804;2022-11-20T09:00:04;27.90;;;10.57;;
75289;SDS011;63883;48.996;20.804;2022-11-20T09:02:32;21.25;;;9.75;;
75289;SDS011;63883;48.996;20.804;2022-11-20T09:04:58;21.17;;;10.32;;
75289;SDS011;63883;48.996;20.804;2022-11-20T09:07:24;24.85;;;11.32;;
75289;SDS011;63883;48.996;20.804;2022-11-20T09:09:49;24.20;;;10.63;;
75289;SDS011;63883;48.996;20.804;2022-11-20T09:12:15;25.35;;;11.30;;
75289;SDS011;63883;48.996;20.804;2022-11-20T09:14:41;27.15;;;12.65;;
75289;SDS011;63883;48.996;20.804;2022-11-20T09:17:07;26.48;;;11.85;;
75289;SDS011;63883;48.996;20.804;2022-11-20T09:19:38;25.48;;;11.25;;
75289;SDS011;63883;48.996;20.804;2022-11-20T09:22:05;26.73;;;12.13;;
75289;SDS011;63883;48.996;20.804;2022-11-20T09:24:30;33.75;;;13.63;;
75289;SDS011;63883;48.996;20.804;2022-11-20T09:26:56;27.50;;;12.55;;
75289;SDS011;63883;48.996;20.804;2022-11-20T09:29:22;25.40;;;11.02;;
75289;SDS011;63883;48.996;20.804;2022-11-20T09:31:48;25.20;;;10.90;;
75289;SDS011;63883;48.996;20.804;2022-11-20T09:34:13;22.42;;;10.27;;
75289;SDS011;63883;48.996;20.804;2022-11-20T09:36:39;21.45;;;9.80;;
75289;SDS011;63883;48.996;20.804;2022-11-20T09:39:05;23.02;;;10.32;;
75289;SDS011;63883;48.996;20.804;2022-11-20T09:47:08;23.20;;;9.82;;
75289;SDS011;63883;48.996;20.804;2022-11-20T09:52:32;23.42;;;10.45;;
75289;SDS011;63883;48.996;20.804;2022-11-20T09:55:17;22.85;;;10.43;;
75289;SDS011;63883;48.996;20.804;2022-11-20T09:57:44;25.02;;;10.88;;
75289;SDS011;63883;48.996;20.804;2022-11-20T10:00:13;24.92;;;12.00;;
75289;SDS011;63883;48.996;20.804;2022-11-20T10:02:44;26.25;;;11.32;;
75289;SDS011;63883;48.996;20.804;2022-11-20T10:26:02;22.60;;;10.27;;
75289;SDS011;63883;48.996;20.804;2022-11-20T10:28:53;22.48;;;9.75;;
75289;SDS011;63883;48.996;20.804;2022-11-20T10:31:40;22.20;;;9.73;;
75289;SDS011;63883;48.996;20.804;2022-11-20T10:34:27;22.00;;;9.20;;
75289;SDS011;63883;48.996;20.804;2022-11-20T10:40:40;23.27;;;10.07;;
75289;SDS011;63883;48.996;20.804;2022-11-20T10:43:10;21.95;;;10.02;;
75289;SDS011;63883;48.996;20.804;2022-11-20T10:49:18;21.25;;;9.25;;
75289;SDS011;63883;48.996;20.804;2022-11-20T10:54:18;17.95;;;8.48;;
75289;SDS011;63883;48.996;20.804;2022-11-20T10:57:54;22.50;;;10.50;;
75289;SDS011;63883;48.996;20.804;2022-11-20T11:00:10;20.95;;;9.50;;
75289;SDS011;63883;48.996;20.804;2022-11-20T11:08:15;21.23;;;10.25;;
75289;SDS011;63883;48.996;20.804;2022-11-20T11:10:56;19.58;;;9.15;;
75289;SDS011;63883;48.996;20.804;2022-11-20T11:13:26;20.42;;;9.40;;
75289;SDS011;63883;48.996;20.804;2022-11-20T11:15:53;24.17;;;11.65;;
75289;SDS011;63883;48.996;20.804;2022-11-20T11:20:56;20.60;;;9.23;;
75289;SDS011;63883;48.996;20.804;2022-11-20T11:23:34;20.08;;;9.73;;
75289;SDS011;63883;48.996;20.804;2022-11-20T11:29:43;17.40;;;8.73;;
75289;SDS011;63883;48.996;20.804;2022-11-20T11:32:14;11.05;;;5.97;;
75289;SDS011;63883;48.996;20.804;2022-11-20T11:34:42;14.70;;;7.30;;
75289;SDS011;63883;48.996;20.804;2022-11-20T11:40:49;17.15;;;8.45;;
75289;SDS011;63883;48.996;20.804;2022-11-20T11:43:19;17.98;;;9.60;;
75289;SDS011;63883;48.996;20.804;2022-11-20T11:52:28;20.05;;;10.18;;
75289;SDS011;63883;48.996;20.804;2022-11-20T11:54:57;20.38;;;10.40;;
75289;SDS011;63883;48.996;20.804;2022-11-20T11:57:32;21.15;;;10.60;;
75289;SDS011;63883;48.996;20.804;2022-11-20T12:00:00;19.85;;;9.88;;
75289;SDS011;63883;48.996;20.804;2022-11-20T12:08:59;16.48;;;8.82;;
75289;SDS011;63883;48.996;20.804;2022-11-20T12:20:40;18.77;;;10.77;;
75289;SDS011;63883;48.996;20.804;2022-11-20T12:23:17;18.45;;;10.07;;
75289;SDS011;63883;48.996;20.804;2022-11-20T12:37:29;16.83;;;9.00;;
75289;SDS011;63883;48.996;20.804;2022-11-20T12:40:02;15.00;;;8.98;;
75289;SDS011;63883;48.996;20.804;2022-11-20T12:43:01;15.20;;;8.93;;
75289;SDS011;63883;48.996;20.804;2022-11-20T12:49:38;15.98;;;8.93;;
75289;SDS011;63883;48.996;20.804;2022-11-20T12:52:15;17.27;;;8.93;;
75289;SDS011;63883;48.996;20.804;2022-11-20T12:54:58;16.92;;;8.82;;
75289;SDS011;63883;48.996;20.804;2022-11-20T13:00:28;16.88;;;9.73;;
75289;SDS011;63883;48.996;20.804;2022-11-20T13:08:20;17.35;;;9.10;;
75289;SDS011;63883;48.996;20.804;2022-11-20T13:10:56;18.63;;;9.20;;
75289;SDS011;63883;48.996;20.804;2022-11-20T13:20:12;16.30;;;8.55;;
75289;SDS011;63883;48.996;20.804;2022-11-20T13:22:51;15.57;;;7.75;;
75289;SDS011;63883;48.996;20.804;2022-11-20T13:29:16;14.45;;;7.72;;
75289;SDS011;63883;48.996;20.804;2022-11-20T13:31:44;13.27;;;7.22;;
75289;SDS011;63883;48.996;20.804;2022-11-20T13:34:24;15.23;;;8.32;;
75289;SDS011;63883;48.996;20.804;2022-11-20T13:36:52;15.43;;;8.05;;
75289;SDS011;63883;48.996;20.804;2022-11-20T13:39:26;17.45;;;8.75;;
75289;SDS011;63883;48.996;20.804;2022-11-20T13:41:57;18.48;;;10.23;;
75289;SDS011;63883;48.996;20.804;2022-11-20T13:46:52;21.10;;;10.68;;
75289;SDS011;63883;48.996;20.804;2022-11-20T13:58:49;19.02;;;8.65;;
75289;SDS011;63883;48.996;20.804;2022-11-20T14:01:27;18.10;;;8.75;;
75289;SDS011;63883;48.996;20.804;2022-11-20T14:03:56;16.77;;;8.55;;
75289;SDS011;63883;48.996;20.804;2022-11-20T14:06:25;19.02;;;8.80;;
75289;SDS011;63883;48.996;20.804;2022-11-20T14:08:56;17.30;;;8.40;;
75289;SDS011;63883;48.996;20.804;2022-11-20T14:11:28;17.25;;;8.05;;
75289;SDS011;63883;48.996;20.804;2022-11-20T14:20:12;14.52;;;7.93;;
75289;SDS011;63883;48.996;20.804;2022-11-20T14:22:47;23.13;;;9.30;;
75289;SDS011;63883;48.996;20.804;2022-11-20T14:29:02;18.55;;;8.65;;
75289;SDS011;63883;48.996;20.804;2022-11-20T14:31:28;25.73;;;12.32;;
75289;SDS011;63883;48.996;20.804;2022-11-20T14:33:54;32.00;;;12.93;;
75289;SDS011;63883;48.996;20.804;2022-11-20T14:36:22;27.40;;;11.50;;
75289;SDS011;63883;48.996;20.804;2022-11-20T14:38:50;25.10;;;12.40;;
75289;SDS011;63883;48.996;20.804;2022-11-20T14:41:20;27.85;;;13.10;;
75289;SDS011;63883;48.996;20.804;2022-11-20T14:43:55;28.45;;;14.43;;
75289;SDS011;63883;48.996;20.804;2022-11-20T14:46:22;27.65;;;14.45;;
75289;SDS011;63883;48.996;20.804;2022-11-20T14:48:50;27.48;;;13.40;;
75289;SDS011;63883;48.996;20.804;2022-11-20T14:51:27;33.40;;;15.63;;
75289;SDS011;63883;48.996;20.804;2022-11-20T15:00:23;28.77;;;12.85;;
75289;SDS011;63883;48.996;20.804;2022-11-20T15:02:50;27.30;;;12.85;;
75289;SDS011;63883;48.996;20.804;2022-11-20T15:05:18;23.38;;;9.48;;
75289;SDS011;63883;48.996;20.804;2022-11-20T15:07:50;32.28;;;12.95;;
75289;SDS011;63883;48.996;20.804;2022-11-20T15:10:33;43.45;;;16.30;;
75289;SDS011;63883;48.996;20.804;2022-11-20T15:13:01;35.25;;;13.90;;
75289;SDS011;63883;48.996;20.804;2022-11-20T15:15:30;53.47;;;21.75;;
75289;SDS011;63883;48.996;20.804;2022-11-20T15:18:00;60.17;;;25.63;;
75289;SDS011;63883;48.996;20.804;2022-11-20T15:20:27;106.53;;;35.33;;
75289;SDS011;63883;48.996;20.804;2022-11-20T15:22:55;95.38;;;32.65;;
75289;SDS011;63883;48.996;20.804;2022-11-20T15:25:20;69.93;;;25.77;;
75289;SDS011;63883;48.996;20.804;2022-11-20T15:27:48;61.00;;;21.55;;
75289;SDS011;63883;48.996;20.804;2022-11-20T15:30:18;42.47;;;16.80;;
75289;SDS011;63883;48.996;20.804;2022-11-20T15:32:46;53.17;;;20.08;;
75289;SDS011;63883;48.996;20.804;2022-11-20T15:38:52;55.33;;;19.95;;
75289;SDS011;63883;48.996;20.804;2022-11-20T15:41:18;45.95;;;18.33;;
75289;SDS011;63883;48.996;20.804;2022-11-20T15:43:43;51.85;;;20.73;;
75289;SDS011;63883;48.996;20.804;2022-11-20T15:49:50;50.35;;;18.55;;
75289;SDS011;63883;48.996;20.804;2022-11-20T15:52:16;54.40;;;20.90;;
75289;SDS011;63883;48.996;20.804;2022-11-20T15:54:42;71.47;;;26.65;;
75289;SDS011;63883;48.996;20.804;2022-11-20T16:00:48;55.70;;;20.77;;
75289;SDS011;63883;48.996;20.804;2022-11-20T16:03:15;52.40;;;21.83;;
75289;SDS011;63883;48.996;20.804;2022-11-20T16:09:22;57.42;;;24.52;;
75289;SDS011;63883;48.996;20.804;2022-11-20T16:11:48;41.67;;;19.15;;
75289;SDS011;63883;48.996;20.804;2022-11-20T16:14:14;39.47;;;16.27;;
75289;SDS011;63883;48.996;20.804;2022-11-20T16:20:39;32.10;;;14.48;;
75289;SDS011;63883;48.996;20.804;2022-11-20T16:23:05;45.90;;;20.08;;
75289;SDS011;63883;48.996;20.804;2022-11-20T16:29:12;59.60;;;25.33;;
75289;SDS011;63883;48.996;20.804;2022-11-20T16:31:39;55.03;;;23.42;;
75289;SDS011;63883;48.996;20.804;2022-11-20T16:34:05;87.38;;;34.65;;
75289;SDS011;63883;48.996;20.804;2022-11-20T16:40:12;63.72;;;25.90;;
75289;SDS011;63883;48.996;20.804;2022-11-20T16:42:38;80.68;;;33.20;;
75289;SDS011;63883;48.996;20.804;2022-11-20T16:48:45;60.40;;;26.67;;
75289;SDS011;63883;48.996;20.804;2022-11-20T16:51:17;66.55;;;27.30;;
75289;SDS011;63883;48.996;20.804;2022-11-20T16:53:42;76.80;;;28.85;;
75289;SDS011;63883;48.996;20.804;2022-11-20T16:59:55;68.18;;;28.00;;
75289;SDS011;63883;48.996;20.804;2022-11-20T17:02:21;85.82;;;30.98;;
75289;SDS011;63883;48.996;20.804;2022-11-20T17:04:47;91.70;;;34.17;;
75289;SDS011;63883;48.996;20.804;2022-11-20T17:07:13;94.35;;;34.75;;
75289;SDS011;63883;48.996;20.804;2022-11-20T17:09:38;51.72;;;21.20;;
75289;SDS011;63883;48.996;20.804;2022-11-20T17:12:04;68.22;;;23.23;;
75289;SDS011;63883;48.996;20.804;2022-11-20T17:14:30;83.78;;;34.50;;
75289;SDS011;63883;48.996;20.804;2022-11-20T17:16:56;107.30;;;38.65;;
75289;SDS011;63883;48.996;20.804;2022-11-20T17:19:22;155.52;;;52.20;;
75289;SDS011;63883;48.996;20.804;2022-11-20T17:21:47;126.88;;;45.15;;
75289;SDS011;63883;48.996;20.804;2022-11-20T17:24:13;86.75;;;31.52;;